OICI  Ilam Airport

Add Bookmark

Ilam, Iran

Status IATA
Operational IIL
Latitude Longitude
33° 35' 11" N 46° 24' 17" E
33.586601 46.404800
Local (DST + 5) UTC (GMT + 4)
Nov 24, 2014 03:26 Nov 24, 2014 11:56
Sunrise-Sunset Local UTC
Begin Civil Twilight 06:36 03:06
Sunrise 07:03 03:33
Sunset 05:19 13:49
End Civil Twilight 05:45 14:15

Current Weather

METAR Observed VFR
OICI 241100Z 15004KT 9999 FEW035CB SCT040 OVC080 11/05 Q1017 A3004 Mon, Nov 24, 2014 @ 11:00 UTC
(56 Minutes ago)
Visual Flight Rules
Wind Visibility Clouds Conditions
150° at 4 knots (7 kph) 10 km or more
  • Few at 3,500' AGL
  • Scattered at 4,000' AGL
  • Overcast at 8,000' AGL
  • No significant weather
Temperatures Readings Precipitation
Current Temp 11°C (52°F)
Dewpoint 5°C (41°F)
Humidity 67%
Altimeter 30.03"Hg
Sea Level Pressure 1017mb
Field Elevation 4406.17'
None Recorded

Additional weather within a 185.2km radius of OICI

Map ICAO Location
OICC 109.3km N (039°)
OICK 174.8km E (095°)

24 Hour Weather History

Loading
-

24 Hour Weather Graphs

Loading
-

CheckWX.com is intended as a tool to help pilots better visualize weather data. It is not intended as a substitute for an official weather briefing obtained from a Flight Service Station. CheckWX.com does not meet the FAA requirements for an official pre-flight weather briefing. Therefore, it's important that pilots still call and obtain an official FSS pre-flight weather briefing.